Time;durP1;ratioP1;P1;durP2;ratioP2;P2;SDS_P1;SDS_P2;PMS_P1;PMS_P2;Temp;Humidity;BMP_temperature;BMP_pressure;BME280_temperature;BME280_humidity;BME280_pressure;Samples;Min_cycle;Max_cycle;Signal;HPM_P1;HPM_P2
2022/02/24 00:00:16;;;;;;;1.45;0.50;;;;;;;-0.02;100.00;100145.50;5058742;28;20329;-93
2022/02/24 00:02:42;;;;;;;0.40;0.40;;;;;;;0.15;100.00;100177.66;5057961;28;20028;-90
2022/02/24 00:05:11;;;;;;;0.40;0.40;;;;;;;0.11;100.00;100178.88;5048140;28;20144;-89
2022/02/24 00:07:39;;;;;;;0.40;0.40;;;;;;;0.01;100.00;100175.28;5033903;28;20461;-91
2022/02/24 00:10:08;;;;;;;0.50;0.50;;;;;;;-0.06;100.00;100170.47;5051020;28;20043;-91
2022/02/24 00:12:35;;;;;;;0.40;0.40;;;;;;;-0.06;100.00;100167.84;5056379;28;20025;-92
2022/02/24 00:15:03;;;;;;;0.40;0.40;;;;;;;-0.08;100.00;100158.34;5053589;28;20640;-91
2022/02/24 00:17:29;;;;;;;0.40;0.40;;;;;;;-0.07;100.00;100160.03;5042850;28;20024;-88
2022/02/24 00:19:55;;;;;;;0.50;0.50;;;;;;;-0.17;100.00;100152.00;5039614;28;20033;-90
2022/02/24 00:22:21;;;;;;;0.50;0.50;;;;;;;-0.18;100.00;100147.69;5042324;28;20036;-90
2022/02/24 00:24:47;;;;;;;0.47;0.47;;;;;;;-0.13;100.00;100142.00;5024423;28;20662;-91
2022/02/24 00:27:12;;;;;;;0.50;0.50;;;;;;;0.05;100.00;100140.53;5043018;28;20037;-90
2022/02/24 00:29:38;;;;;;;0.40;0.40;;;;;;;0.27;100.00;100144.13;5056999;28;20032;-92
2022/02/24 00:32:05;;;;;;;0.40;0.40;;;;;;;0.39;100.00;100145.75;5059808;28;20032;-91
2022/02/24 00:34:31;;;;;;;0.40;0.40;;;;;;;0.48;100.00;100133.56;5060302;28;20033;-90
2022/02/24 00:36:56;;;;;;;1.50;1.05;;;;;;;0.86;100.00;100155.03;5058760;28;20043;-87
2022/02/24 00:39:22;;;;;;;3.13;1.30;;;;;;;1.08;100.00;100148.78;5079309;28;20073;-86
2022/02/24 00:41:48;;;;;;;1.08;0.80;;;;;;;1.29;100.00;100143.47;5059965;28;20082;-89
2022/02/24 00:44:15;;;;;;;1.85;0.68;;;;;;;1.29;100.00;100130.22;5058262;28;20199;-91
2022/02/24 00:46:41;;;;;;;0.60;0.60;;;;;;;1.37;100.00;100126.09;5046787;28;20119;-90
2022/02/24 00:49:11;;;;;;;0.50;0.50;;;;;;;1.21;100.00;100094.78;5048066;28;20043;-92
2022/02/24 00:51:37;;;;;;;2.20;0.90;;;;;;;1.24;100.00;100098.00;5039694;28;20050;-89
2022/02/24 00:54:03;;;;;;;3.00;0.73;;;;;;;1.37;100.00;100107.53;5029834;28;20025;-91
2022/02/24 00:56:28;;;;;;;0.50;0.50;;;;;;;1.29;100.00;100093.13;5042409;28;20045;-89
2022/02/24 00:58:54;;;;;;;0.50;0.50;;;;;;;1.36;100.00;100104.06;5022467;28;20037;-89
2022/02/24 01:01:25;;;;;;;0.50;0.50;;;;;;;1.38;100.00;100098.66;5041242;28;20036;-90
2022/02/24 01:03:53;;;;;;;0.55;0.55;;;;;;;1.35;100.00;100085.63;5040984;28;20055;-90
2022/02/24 01:06:19;;;;;;;0.50;0.50;;;;;;;1.44;100.00;100096.28;5042667;28;20413;-89
2022/02/24 01:08:45;;;;;;;2.70;1.00;;;;;;;1.56;100.00;100114.72;5027707;28;20524;-90
2022/02/24 01:11:10;;;;;;;0.60;0.50;;;;;;;1.55;100.00;100108.59;5042265;28;20098;-91
2022/02/24 01:13:36;;;;;;;0.50;0.50;;;;;;;1.44;100.00;100106.88;5039447;28;20040;-89
2022/02/24 01:16:02;;;;;;;0.40;0.40;;;;;;;1.28;100.00;100090.66;5059080;28;20039;-91
2022/02/24 01:18:29;;;;;;;1.67;0.93;;;;;;;1.25;100.00;100107.63;5043357;28;20040;-91
2022/02/24 01:20:55;;;;;;;0.50;0.50;;;;;;;1.05;100.00;100080.19;5038795;28;20063;-88
2022/02/24 01:23:20;;;;;;;0.50;0.50;;;;;;;1.06;100.00;100066.00;5057855;28;20024;-90
2022/02/24 01:25:46;;;;;;;0.63;0.63;;;;;;;1.11;100.00;100073.53;5042352;28;20478;-91
2022/02/24 01:28:12;;;;;;;0.60;0.60;;;;;;;0.92;100.00;100060.22;5025866;28;20033;-92
2022/02/24 01:30:38;;;;;;;0.85;0.73;;;;;;;0.97;100.00;100058.00;5057804;28;20033;-90
2022/02/24 01:33:03;;;;;;;3.30;1.40;;;;;;;0.98;100.00;100055.25;5041307;28;20082;-88
2022/02/24 01:35:29;;;;;;;2.97;1.05;;;;;;;1.00;100.00;100081.56;5072762;28;20024;-89
2022/02/24 01:37:54;;;;;;;3.17;0.80;;;;;;;0.85;100.00;100092.50;5026678;28;20051;-90
2022/02/24 01:40:20;;;;;;;0.90;0.70;;;;;;;0.84;100.00;100076.75;5025962;28;20089;-93
2022/02/24 01:42:46;;;;;;;0.50;0.50;;;;;;;0.72;100.00;100064.56;5039370;28;20059;-90
2022/02/24 01:45:12;;;;;;;1.70;0.60;;;;;;;0.73;100.00;100075.00;5040388;28;20048;-90
2022/02/24 01:47:38;;;;;;;0.50;0.50;;;;;;;0.69;100.00;100070.09;5036305;28;20029;-87
2022/02/24 01:50:06;;;;;;;0.70;0.70;;;;;;;0.61;100.00;100086.63;5040392;28;20085;-90
2022/02/24 01:52:32;;;;;;;0.50;0.50;;;;;;;0.52;100.00;100087.38;5041877;28;20032;-91
2022/02/24 01:54:57;;;;;;;0.60;0.60;;;;;;;0.52;100.00;100085.56;5051088;28;20028;-88
2022/02/24 01:57:23;;;;;;;1.33;0.80;;;;;;;0.46;100.00;100059.66;5022722;28;20089;-90
2022/02/24 01:59:50;;;;;;;0.50;0.50;;;;;;;0.35;100.00;100062.34;5044540;28;20065;-87
2022/02/24 02:02:15;;;;;;;0.50;0.50;;;;;;;0.02;100.00;100024.50;5044108;28;20128;-91
2022/02/24 02:04:42;;;;;;;0.63;0.50;;;;;;;0.14;100.00;100055.22;5043162;28;20144;-86
2022/02/24 02:07:08;;;;;;;0.40;0.40;;;;;;;0.09;100.00;100057.41;5025686;28;20037;-86
2022/02/24 02:09:34;;;;;;;0.50;0.50;;;;;;;0.00;100.00;100039.66;5025434;28;20063;-89
2022/02/24 02:12:00;;;;;;;0.40;0.40;;;;;;;-0.16;100.00;100032.16;5039942;28;20032;-88
2022/02/24 02:14:26;;;;;;;0.43;0.43;;;;;;;-0.12;100.00;100040.66;5040375;28;20043;-90
2022/02/24 02:16:52;;;;;;;0.50;0.50;;;;;;;-0.20;100.00;100024.59;5040219;28;20063;-88
2022/02/24 02:19:18;;;;;;;0.50;0.50;;;;;;;-0.25;100.00;100014.38;5071229;28;20031;-89
2022/02/24 02:21:45;;;;;;;0.50;0.50;;;;;;;-0.14;100.00;100027.56;5031119;28;20032;-89
2022/02/24 02:24:11;;;;;;;0.50;0.50;;;;;;;-0.12;100.00;100033.56;5025256;28;20044;-88
2022/02/24 02:26:36;;;;;;;0.50;0.50;;;;;;;-0.20;100.00;100022.78;5022389;28;21266;-89
2022/02/24 02:29:05;;;;;;;0.50;0.50;;;;;;;-0.20;100.00;100027.22;5026744;28;20123;-89
2022/02/24 02:31:30;;;;;;;0.50;0.50;;;;;;;-0.32;100.00;100018.47;5054644;28;20040;-86
2022/02/24 02:34:10;;;;;;;0.50;0.50;;;;;;;-0.29;100.00;100015.59;5038585;28;20047;-89
2022/02/24 02:36:37;;;;;;;0.50;0.50;;;;;;;-0.59;100.00;99964.28;5040447;28;20094;-90
2022/02/24 02:39:06;;;;;;;0.50;0.50;;;;;;;-0.30;100.00;99992.78;5026622;28;20035;-87
2022/02/24 02:41:32;;;;;;;0.50;0.50;;;;;;;-0.22;100.00;99999.13;5041119;28;20035;-89
2022/02/24 02:43:58;;;;;;;0.50;0.50;;;;;;;-0.27;100.00;99969.59;5053562;28;20116;-90
2022/02/24 02:46:24;;;;;;;0.50;0.50;;;;;;;-0.17;100.00;99985.53;5033801;28;20086;-90
2022/02/24 02:48:50;;;;;;;0.50;0.50;;;;;;;-0.33;100.00;99933.13;5024817;28;20033;-89
2022/02/24 02:51:16;;;;;;;0.45;0.45;;;;;;;-0.29;100.00;99928.41;5041928;28;20033;-89
2022/02/24 02:53:42;;;;;;;0.50;0.50;;;;;;;-0.13;100.00;99944.69;5023800;28;20033;-88
2022/02/24 02:56:08;;;;;;;0.50;0.50;;;;;;;-0.15;100.00;99951.91;5021851;28;20046;-85
2022/02/24 02:58:34;;;;;;;0.47;0.47;;;;;;;-0.12;100.00;99964.84;5026421;28;20094;-87
2022/02/24 03:00:59;;;;;;;0.50;0.50;;;;;;;0.01;100.00;100006.16;5056072;28;20033;-87
2022/02/24 03:03:25;;;;;;;6.10;1.20;;;;;;;-0.02;100.00;100042.41;5045192;28;20086;-87
2022/02/24 03:05:51;;;;;;;1.38;0.63;;;;;;;-0.22;100.00;100024.69;5033338;28;20048;-84
2022/02/24 03:08:17;;;;;;;1.05;0.70;;;;;;;-0.35;100.00;100042.50;5046335;28;20040;-84
2022/02/24 03:10:43;;;;;;;0.50;0.50;;;;;;;-0.40;100.00;100012.97;5049690;28;20032;-83
2022/02/24 03:13:09;;;;;;;0.60;0.60;;;;;;;-0.58;100.00;99973.03;5048470;28;20036;-83
2022/02/24 03:15:35;;;;;;;0.60;0.60;;;;;;;-0.53;100.00;99994.63;5043651;28;20405;-84
2022/02/24 03:18:00;;;;;;;0.40;0.40;;;;;;;-0.57;100.00;99995.88;5054620;28;20033;-84
2022/02/24 03:20:31;;;;;;;0.50;0.50;;;;;;;-0.61;100.00;99987.34;5041660;28;20033;-86
2022/02/24 03:23:00;;;;;;;0.50;0.50;;;;;;;-0.63;100.00;99978.72;5040363;28;20036;-86
2022/02/24 03:25:27;;;;;;;0.40;0.40;;;;;;;-0.82;100.00;99944.19;5024139;28;20123;-85
2022/02/24 03:27:53;;;;;;;0.50;0.50;;;;;;;-0.81;100.00;99946.72;5038975;28;20047;-84
2022/02/24 03:30:19;;;;;;;0.50;0.50;;;;;;;-0.64;100.00;99958.53;5041709;28;20028;-83
2022/02/24 03:32:46;;;;;;;0.50;0.50;;;;;;;-0.83;100.00;99916.13;5020291;28;20101;-85
2022/02/24 03:35:12;;;;;;;0.50;0.50;;;;;;;-0.63;100.00;99944.41;5029752;28;20496;-84
2022/02/24 03:37:39;;;;;;;0.50;0.50;;;;;;;-0.68;100.00;99938.66;5028978;28;20032;-86
2022/02/24 03:40:06;;;;;;;0.50;0.50;;;;;;;-0.60;100.00;99940.66;5042822;28;20065;-85
2022/02/24 03:42:32;;;;;;;0.50;0.50;;;;;;;-0.65;100.00;99937.56;5040976;28;20032;-86
2022/02/24 03:44:58;;;;;;;0.45;0.45;;;;;;;-0.68;100.00;99928.91;5040124;28;20043;-84
2022/02/24 03:47:24;;;;;;;1.55;0.63;;;;;;;-0.79;100.00;99914.94;5057117;28;20089;-84
2022/02/24 03:49:50;;;;;;;0.50;0.50;;;;;;;-0.61;100.00;99939.81;5052071;28;20051;-84
2022/02/24 03:52:16;;;;;;;0.50;0.50;;;;;;;-0.76;100.00;99912.03;5044917;28;20068;-84
2022/02/24 03:54:43;;;;;;;0.50;0.50;;;;;;;-0.79;100.00;99913.13;5037971;28;20043;-85
2022/02/24 03:57:08;;;;;;;0.50;0.50;;;;;;;-0.76;100.00;99912.03;5056498;28;20032;-85
2022/02/24 03:59:35;;;;;;;0.50;0.50;;;;;;;-0.72;100.00;99916.91;5023783;28;20032;-87
2022/02/24 04:02:00;;;;;;;0.40;0.40;;;;;;;-0.63;100.00;99927.72;5057496;28;20031;-86
2022/02/24 04:04:26;;;;;;;0.50;0.50;;;;;;;-0.56;100.00;99940.28;5042609;28;20379;-86
2022/02/24 04:06:51;;;;;;;0.50;0.50;;;;;;;-0.60;100.00;99940.66;5026520;28;20044;-87
2022/02/24 04:09:17;;;;;;;0.40;0.40;;;;;;;-0.46;100.00;99953.56;5054264;28;20032;-88
2022/02/24 04:11:43;;;;;;;0.50;0.50;;;;;;;-0.48;100.00;99934.38;5040312;28;20040;-84
2022/02/24 04:14:08;;;;;;;0.57;0.50;;;;;;;-0.52;100.00;99936.44;5027420;28;20050;-86
2022/02/24 04:16:34;;;;;;;0.50;0.50;;;;;;;-0.58;100.00;99918.47;5043682;28;20048;-86
2022/02/24 04:19:00;;;;;;;0.50;0.50;;;;;;;-0.53;100.00;99942.69;5041300;28;20403;-87
2022/02/24 04:21:26;;;;;;;0.50;0.50;;;;;;;-0.54;100.00;99927.78;5058599;28;20682;-87
2022/02/24 04:23:53;;;;;;;0.50;0.50;;;;;;;-0.54;100.00;99927.78;5056020;28;20082;-86
2022/02/24 04:26:18;;;;;;;0.50;0.50;;;;;;;-0.59;100.00;99924.69;5057216;28;20029;-89
2022/02/24 04:28:44;;;;;;;0.50;0.50;;;;;;;-0.54;100.00;99933.06;5045118;28;20047;-89
2022/02/24 04:31:10;;;;;;;0.50;0.50;;;;;;;-0.49;100.00;99948.56;5056042;28;20371;-84
2022/02/24 04:33:35;;;;;;;0.50;0.50;;;;;;;-0.46;100.00;99970.25;5056846;28;20486;-85
2022/02/24 04:36:01;;;;;;;0.63;0.63;;;;;;;-0.35;100.00;99981.75;5043977;28;20490;-83
2022/02/24 04:38:27;;;;;;;0.50;0.50;;;;;;;-0.36;100.00;99998.59;5044888;28;20105;-83
2022/02/24 04:40:52;;;;;;;1.60;0.70;;;;;;;-0.38;100.00;99995.22;5042604;28;20068;-83
2022/02/24 04:43:18;;;;;;;0.50;0.50;;;;;;;-0.47;100.00;99979.16;5055883;28;20032;-83
2022/02/24 04:45:43;;;;;;;2.45;0.68;;;;;;;-0.48;100.00;99972.22;5042273;28;20032;-81
2022/02/24 04:48:10;;;;;;;0.50;0.50;;;;;;;-0.45;100.00;99976.38;5038705;28;20078;-80
2022/02/24 04:50:36;;;;;;;0.50;0.50;;;;;;;-0.50;100.00;99960.91;5058146;28;20523;-81
2022/02/24 04:53:02;;;;;;;1.58;1.15;;;;;;;-0.54;100.00;99946.28;5058159;28;20036;-84
2022/02/24 04:55:28;;;;;;;0.50;0.50;;;;;;;-0.64;100.00;99929.50;5056212;28;20055;-82
2022/02/24 04:57:53;;;;;;;0.40;0.40;;;;;;;-0.60;100.00;99941.50;5041631;28;20032;-82
2022/02/24 05:00:19;;;;;;;0.50;0.50;;;;;;;-0.63;100.00;99947.03;5054221;28;20055;-83
2022/02/24 05:02:45;;;;;;;0.40;0.40;;;;;;;-0.68;100.00;99950.03;5040631;28;20044;-84
2022/02/24 05:05:10;;;;;;;0.50;0.50;;;;;;;-0.72;100.00;99968.88;5035511;28;20450;-82
2022/02/24 05:07:36;;;;;;;0.50;0.50;;;;;;;-0.72;100.00;99967.06;5056609;28;20359;-83
2022/02/24 05:10:03;;;;;;;0.40;0.40;;;;;;;-0.68;100.00;99979.06;5040438;28;20032;-83
2022/02/24 05:12:29;;;;;;;0.50;0.50;;;;;;;-0.59;100.00;100005.69;5057442;28;20394;-84
2022/02/24 05:14:54;;;;;;;0.40;0.40;;;;;;;-0.55;100.00;100017.72;5054558;28;20040;-84
2022/02/24 05:17:20;;;;;;;0.45;0.45;;;;;;;-0.54;100.00;100028.13;5043892;28;20428;-84
2022/02/24 05:19:48;;;;;;;0.50;0.50;;;;;;;-0.56;100.00;100021.28;5057106;28;20094;-85
2022/02/24 05:22:14;;;;;;;0.40;0.40;;;;;;;-0.59;100.00;100021.53;5041860;28;20048;-83
2022/02/24 05:24:39;;;;;;;0.43;0.43;;;;;;;-0.69;100.00;100017.00;5058477;28;20097;-84
2022/02/24 05:27:05;;;;;;;0.47;0.47;;;;;;;-0.64;100.00;100027.19;5041076;28;20047;-85
2022/02/24 05:29:30;;;;;;;0.50;0.50;;;;;;;-0.67;100.00;100014.22;5054064;28;20044;-85
2022/02/24 05:31:56;;;;;;;0.50;0.50;;;;;;;-0.63;100.00;100026.25;5055133;28;20478;-83
2022/02/24 05:34:22;;;;;;;0.50;0.50;;;;;;;-0.65;100.00;100016.75;5053843;28;20115;-83
2022/02/24 05:36:48;;;;;;;0.50;0.50;;;;;;;-0.64;100.00;100026.34;5039614;28;20036;-81
2022/02/24 05:39:14;;;;;;;0.40;0.40;;;;;;;-0.61;100.00;100028.75;5040213;28;20133;-86
2022/02/24 05:41:42;;;;;;;0.50;0.50;;;;;;;-0.58;100.00;100029.34;5040510;28;20158;-84
2022/02/24 05:44:10;;;;;;;0.50;0.50;;;;;;;-0.60;100.00;100030.44;5040868;28;20040;-84
2022/02/24 05:46:36;;;;;;;0.50;0.50;;;;;;;-0.65;100.00;100017.59;5037837;28;20108;-83
2022/02/24 05:49:02;;;;;;;0.50;0.50;;;;;;;-0.65;100.00;100012.31;5041988;28;20044;-81
2022/02/24 05:51:27;;;;;;;0.50;0.50;;;;;;;-0.70;100.00;100009.19;5054644;28;20040;-82
2022/02/24 05:53:53;;;;;;;0.50;0.50;;;;;;;-0.71;100.00;100016.28;5024796;28;20037;-82
2022/02/24 05:56:18;;;;;;;0.50;0.50;;;;;;;-0.68;100.00;100015.22;5071549;28;20581;-83
2022/02/24 05:58:44;;;;;;;0.50;0.50;;;;;;;-0.56;100.00;100029.22;5054099;28;20354;-81
2022/02/24 06:01:10;;;;;;;0.50;0.50;;;;;;;-0.53;100.00;100021.91;5040586;28;20086;-83
2022/02/24 06:03:36;;;;;;;2.40;1.30;;;;;;;-0.33;100.00;100056.44;5042036;28;20071;-86
2022/02/24 06:06:02;;;;;;;23.10;2.05;;;;;;;-0.20;100.00;100074.78;5023696;28;20048;-84
2022/02/24 06:08:27;;;;;;;2.08;0.90;;;;;;;-0.22;100.00;100070.44;5057872;28;20402;-85
2022/02/24 06:10:53;;;;;;;0.50;0.50;;;;;;;-0.24;100.00;100074.19;5022923;28;20035;-83
2022/02/24 06:13:19;;;;;;;0.40;0.40;;;;;;;-0.35;100.00;100061.00;5056521;28;20071;-82
2022/02/24 06:15:45;;;;;;;0.50;0.50;;;;;;;-0.43;100.00;100050.22;5026242;28;20837;-81
2022/02/24 06:18:11;;;;;;;0.50;0.50;;;;;;;-0.41;100.00;100035.09;5047766;28;20036;-81
2022/02/24 06:20:37;;;;;;;0.70;0.70;;;;;;;-0.51;100.00;100041.09;5056325;28;20093;-81
2022/02/24 06:23:03;;;;;;;0.50;0.50;;;;;;;-0.62;100.00;100043.75;5039227;28;20034;-82
2022/02/24 06:25:28;;;;;;;0.50;0.50;;;;;;;-0.69;100.00;100032.00;5040169;28;20108;-82
2022/02/24 06:27:54;;;;;;;0.50;0.50;;;;;;;-0.72;100.00;100033.06;5040971;28;20036;-83
2022/02/24 06:30:19;;;;;;;0.50;0.50;;;;;;;-0.77;100.00;100043.16;5041650;28;20501;-81
2022/02/24 06:32:45;;;;;;;0.50;0.50;;;;;;;-0.83;100.00;100037.53;5040777;28;20033;-84
2022/02/24 06:35:12;;;;;;;0.50;0.50;;;;;;;-0.87;100.00;100034.31;5057840;28;20123;-84
2022/02/24 06:37:42;;;;;;;0.63;0.63;;;;;;;-0.92;100.00;100041.75;5054294;28;20033;-84
2022/02/24 06:40:10;;;;;;;0.50;0.50;;;;;;;-1.00;100.00;100037.06;5029442;28;20086;-82
2022/02/24 06:42:39;;;;;;;0.50;0.50;;;;;;;-0.99;100.00;100059.00;5023247;28;20046;-84
2022/02/24 06:45:11;;;;;;;0.50;0.50;;;;;;;-1.01;100.00;100055.63;5055528;28;20430;-82
2022/02/24 06:47:36;;;;;;;0.50;0.50;;;;;;;-1.03;100.00;100037.31;5027698;28;20050;-85
2022/02/24 06:50:09;;;;;;;0.50;0.50;;;;;;;-0.94;100.00;100049.75;5050672;28;20490;-83
2022/02/24 06:52:36;;;;;;;0.50;0.50;;;;;;;-0.85;100.00;100042.91;5067629;28;20685;-81
2022/02/24 06:55:06;;;;;;;0.50;0.50;;;;;;;-0.95;100.00;100034.91;5025224;28;20140;-81
2022/02/24 06:57:37;;;;;;;0.50;0.50;;;;;;;-0.96;100.00;100056.94;5055777;28;20039;-83
2022/02/24 07:00:03;;;;;;;0.50;0.50;;;;;;;-0.93;100.00;100067.28;5051752;28;20083;-83
2022/02/24 07:02:29;;;;;;;0.50;0.50;;;;;;;-0.86;100.00;100064.16;5055401;28;20064;-84
2022/02/24 07:04:54;;;;;;;0.40;0.40;;;;;;;-0.76;100.00;100075.69;5051715;28;20089;-82
2022/02/24 07:07:20;;;;;;;0.50;0.50;;;;;;;-0.77;100.00;100097.75;5037813;28;20051;-82
2022/02/24 07:09:45;;;;;;;0.50;0.50;;;;;;;-0.70;100.00;100120.91;5054619;28;20041;-84
2022/02/24 07:12:11;;;;;;;0.40;0.40;;;;;;;-0.68;100.00;100128.72;5040721;28;20040;-82
2022/02/24 07:14:37;;;;;;;0.50;0.50;;;;;;;-0.62;100.00;100138.81;5040649;28;20052;-83
2022/02/24 07:17:03;;;;;;;0.50;0.50;;;;;;;-0.61;100.00;100147.56;5038439;28;20029;-83
2022/02/24 07:19:28;;;;;;;0.50;0.50;;;;;;;-0.65;100.00;100139.03;5040071;28;20036;-81
2022/02/24 07:21:54;;;;;;;0.50;0.50;;;;;;;-0.65;100.00;100149.59;5022315;28;20037;-84
2022/02/24 07:24:20;;;;;;;0.50;0.50;;;;;;;-0.66;100.00;100158.50;5056120;28;20400;-88
2022/02/24 07:26:45;;;;;;;0.50;0.50;;;;;;;-0.65;100.00;100157.53;5053285;28;20089;-84
2022/02/24 07:29:11;;;;;;;0.40;0.40;;;;;;;-0.87;100.00;100124.03;5047737;28;20097;-83
2022/02/24 07:31:36;;;;;;;0.50;0.50;;;;;;;-0.74;100.00;100139.75;5061744;28;20182;-85
2022/02/24 07:34:04;;;;;;;0.50;0.50;;;;;;;-0.80;100.00;100142.88;5050778;28;20029;-84
2022/02/24 07:36:33;;;;;;;0.50;0.50;;;;;;;-0.76;100.00;100149.59;5068269;28;20049;-82
2022/02/24 07:38:59;;;;;;;0.50;0.50;;;;;;;-0.77;100.00;100159.28;5032256;28;20474;-85
2022/02/24 07:41:25;;;;;;;0.50;0.50;;;;;;;-0.85;100.00;100158.22;5049581;28;20098;-85
2022/02/24 07:43:53;;;;;;;0.40;0.40;;;;;;;-0.86;100.00;100160.03;5061145;28;20035;-84
2022/02/24 07:46:18;;;;;;;0.50;0.50;;;;;;;-0.90;100.00;100169.97;5050346;28;20036;-84
2022/02/24 07:48:44;;;;;;;0.50;0.50;;;;;;;-0.89;100.00;100173.44;5059647;28;20033;-84
2022/02/24 07:51:13;;;;;;;0.50;0.50;;;;;;;-1.00;100.00;100160.25;5037248;28;20037;-84
2022/02/24 07:53:39;;;;;;;0.50;0.50;;;;;;;-0.89;100.00;100161.09;5060657;28;20074;-84
2022/02/24 07:56:05;;;;;;;0.50;0.50;;;;;;;-0.83;100.00;100180.06;5029010;28;20036;-85
2022/02/24 07:58:33;;;;;;;0.50;0.50;;;;;;;-0.82;100.00;100184.38;5052650;28;20058;-83
2022/02/24 08:00:58;;;;;;;0.50;0.50;;;;;;;-0.73;100.00;100188.97;5062787;28;20029;-84
2022/02/24 08:03:25;;;;;;;0.50;0.50;;;;;;;-0.72;100.00;100178.25;5038394;28;20039;-87
2022/02/24 08:05:51;;;;;;;0.50;0.50;;;;;;;-0.49;100.00;100194.16;5053931;28;20048;-83
2022/02/24 08:08:17;;;;;;;0.50;0.50;;;;;;;-0.32;100.00;100188.41;5050546;28;20143;-87
2022/02/24 08:10:42;;;;;;;0.50;0.50;;;;;;;-0.07;100.00;100192.59;5048352;28;20418;-84
2022/02/24 08:13:08;;;;;;;0.50;0.50;;;;;;;0.23;100.00;100209.63;5032020;28;20052;-82
2022/02/24 08:15:33;;;;;;;9.30;0.90;;;;;;;0.28;100.00;100235.69;5042528;28;20048;-83
2022/02/24 08:17:59;;;;;;;2.50;1.35;;;;;;;0.20;100.00;100231.00;5052235;28;20044;-83
2022/02/24 08:20:25;;;;;;;1.75;0.50;;;;;;;0.18;100.00;100238.22;5051835;28;20024;-84
2022/02/24 08:22:51;;;;;;;0.50;0.50;;;;;;;-0.03;100.00;100215.19;5051900;28;20052;-84
2022/02/24 08:25:19;;;;;;;0.50;0.50;;;;;;;0.04;100.00;100241.13;5063818;28;20024;-83
2022/02/24 08:27:46;;;;;;;0.50;0.50;;;;;;;0.13;100.00;100261.53;5037193;28;20040;-83
2022/02/24 08:30:14;;;;;;;0.40;0.40;;;;;;;-0.03;100.00;100235.47;5066903;28;20032;-84
2022/02/24 08:32:40;;;;;;;0.40;0.40;;;;;;;-0.05;100.00;100243.53;5053106;28;20032;-83
2022/02/24 08:35:08;;;;;;;0.50;0.50;;;;;;;-0.20;100.00;100222.75;5067670;28;20028;-83
2022/02/24 08:37:35;;;;;;;0.50;0.50;;;;;;;0.06;100.00;100250.63;5050808;28;20131;-83
2022/02/24 08:40:02;;;;;;;0.50;0.50;;;;;;;0.22;100.00;100247.59;5052944;28;20559;-83
2022/02/24 08:42:28;;;;;;;0.50;0.50;;;;;;;0.42;100.00;100253.94;5031741;28;20540;-85
2022/02/24 08:44:53;;;;;;;0.50;0.50;;;;;;;0.59;100.00;100271.94;5035916;28;20043;-82
2022/02/24 08:47:20;;;;;;;4.13;1.13;;;;;;;0.66;100.00;100301.38;5037763;28;20081;-82
2022/02/24 08:49:46;;;;;;;1.75;0.93;;;;;;;0.75;100.00;100337.69;5065452;28;20482;-81
2022/02/24 08:52:12;;;;;;;4.85;1.70;;;;;;;0.44;100.00;100345.41;5027609;28;20044;-83
2022/02/24 08:54:38;;;;;;;7.43;1.45;;;;;;;0.12;100.00;100328.59;5050119;28;20111;-81
2022/02/24 08:57:03;;;;;;;4.20;0.93;;;;;;;0.02;100.00;100341.69;5062006;28;20032;-83
2022/02/24 08:59:29;;;;;;;0.40;0.40;;;;;;;0.01;100.00;100369.06;5065840;28;20025;-80
2022/02/24 09:01:55;;;;;;;0.77;0.60;;;;;;;-0.02;100.00;100354.28;5068438;28;20390;-80
2022/02/24 09:04:21;;;;;;;5.25;1.90;;;;;;;-0.11;100.00;100336.47;5046706;28;20040;-80
2022/02/24 09:06:47;;;;;;;7.85;1.60;;;;;;;-0.14;100.00;100344.66;5045898;28;20120;-80
2022/02/24 09:09:12;;;;;;;11.38;3.42;;;;;;;-0.18;100.00;100355.59;5050165;28;20471;-81
2022/02/24 09:11:39;;;;;;;1.40;1.30;;;;;;;-0.21;100.00;100348.75;5051507;28;20593;-79
2022/02/24 09:14:04;;;;;;;0.40;0.40;;;;;;;-0.18;100.00;100359.06;5063906;28;20389;-78
2022/02/24 09:16:34;;;;;;;11.52;3.20;;;;;;;-0.18;100.00;100343.22;5052695;28;20039;-79
2022/02/24 09:19:00;;;;;;;0.43;0.43;;;;;;;-0.02;100.00;100359.59;5033322;28;20032;-82
2022/02/24 09:21:28;;;;;;;0.45;0.45;;;;;;;-0.06;100.00;100357.28;5036989;28;20426;-80
2022/02/24 09:23:53;;;;;;;0.55;0.55;;;;;;;-0.09;100.00;100383.94;5070306;28;20120;-79
2022/02/24 09:26:21;;;;;;;0.40;0.40;;;;;;;-0.15;100.00;100408.22;5030545;28;20663;-81
2022/02/24 09:28:49;;;;;;;0.40;0.40;;;;;;;-0.26;100.00;100407.22;5065633;28;20032;-77
2022/02/24 09:31:15;;;;;;;0.50;0.50;;;;;;;-0.25;100.00;100400.13;5037593;28;20036;-78
2022/02/24 09:33:40;;;;;;;0.50;0.50;;;;;;;-0.26;100.00;100357.00;5037068;28;20364;-78
2022/02/24 09:36:06;;;;;;;0.50;0.50;;;;;;;-0.06;100.00;100362.56;5050370;28;20123;-76
2022/02/24 09:38:32;;;;;;;0.50;0.50;;;;;;;0.05;100.00;100374.97;5061414;28;20495;-79
2022/02/24 09:40:59;;;;;;;0.50;0.50;;;;;;;0.20;100.00;100381.72;5067752;28;20039;-79
2022/02/24 09:43:32;;;;;;;0.50;0.50;;;;;;;0.31;100.00;100376.44;5065962;28;20042;-79
2022/02/24 09:46:00;;;;;;;0.50;0.50;;;;;;;0.59;100.00;100388.34;5062439;28;20052;-78
2022/02/24 09:48:31;;;;;;;0.60;0.60;;;;;;;1.04;100.00;100372.41;5067350;28;20082;-77
2022/02/24 09:50:58;;;;;;;0.90;0.90;;;;;;;4.03;100.00;100396.03;5037091;28;20033;-77
2022/02/24 09:53:24;;;;;;;0.80;0.80;;;;;;;7.23;86.33;100384.66;5067533;28;20130;-76
2022/02/24 09:55:50;;;;;;;0.70;0.70;;;;;;;8.18;80.28;100389.56;5052333;28;20463;-78
2022/02/24 09:58:16;;;;;;;0.50;0.50;;;;;;;7.01;83.74;100395.94;5052577;28;20036;-77
2022/02/24 10:00:42;;;;;;;0.50;0.50;;;;;;;6.58;86.10;100398.56;5066566;28;20032;-78
2022/02/24 10:03:27;;;;;;;0.50;0.50;;;;;;;5.71;89.73;100402.09;5053398;28;20043;-82
2022/02/24 10:05:53;;;;;;;0.40;0.40;;;;;;;4.45;95.65;100408.16;5067589;28;20527;-80
2022/02/24 10:08:44;;;;;;;0.50;0.50;;;;;;;3.60;100.00;100407.97;5046711;28;20028;-86
2022/02/24 10:11:36;;;;;;;0.40;0.40;;;;;;;4.21;99.11;100417.44;5065453;28;20028;-81
2022/02/24 10:14:15;;;;;;;0.60;0.60;;;;;;;4.76;98.06;100417.56;5060890;28;20041;-80
2022/02/24 10:17:02;;;;;;;0.60;0.60;;;;;;;5.67;95.87;100422.91;5031117;28;20036;-81
2022/02/24 10:19:47;;;;;;;0.50;0.50;;;;;;;5.73;94.79;100424.97;5066875;28;20031;-82
2022/02/24 10:22:29;;;;;;;0.80;0.80;;;;;;;9.10;82.36;100434.75;5064711;28;20036;-85
2022/02/24 10:24:58;;;;;;;0.50;0.50;;;;;;;7.76;85.11;100430.72;5045186;28;20056;-80
2022/02/24 10:27:26;;;;;;;4.18;1.13;;;;;;;5.72;92.97;100428.63;5057719;28;20068;-81
2022/02/24 10:30:02;;;;;;;0.50;0.50;;;;;;;4.54;98.69;100441.88;5077229;28;20028;-80
2022/02/24 10:32:41;;;;;;;11.30;0.93;;;;;;;3.66;100.00;100433.16;5081535;28;20056;-88
2022/02/24 10:35:26;;;;;;;0.70;0.70;;;;;;;3.80;100.00;100451.34;5060514;28;20131;-84
2022/02/24 10:38:00;;;;;;;0.80;0.80;;;;;;;7.98;88.42;100457.84;5065373;28;20025;-82
2022/02/24 10:40:28;;;;;;;7.00;3.17;;;;;;;10.52;77.42;100455.78;5049662;28;20036;-83
2022/02/24 10:42:55;;;;;;;0.60;0.60;;;;;;;9.98;77.44;100457.75;5028545;28;20040;-88
2022/02/24 10:45:24;;;;;;;4.30;1.80;;;;;;;10.10;78.40;100454.41;5067518;28;20032;-85
2022/02/24 10:48:00;;;;;;;0.60;0.60;;;;;;;10.60;77.03;100454.84;5063570;28;20037;-87
2022/02/24 10:50:55;;;;;;;0.60;0.60;;;;;;;10.60;81.51;100462.09;5062431;28;20042;-82
2022/02/24 10:53:26;;;;;;;1.48;1.48;;;;;;;8.68;87.07;100487.66;5068446;28;20020;-82
2022/02/24 10:55:59;;;;;;;0.57;0.57;;;;;;;6.50;94.36;100492.03;5048407;28;20036;-85
2022/02/24 10:58:28;;;;;;;2.00;0.70;;;;;;;4.95;98.60;100512.56;5057652;28;20028;-80
2022/02/24 11:01:22;;;;;;;2.30;1.35;;;;;;;3.73;100.00;100469.69;5050297;28;20059;-85
2022/02/24 11:04:08;;;;;;;3.13;1.23;;;;;;;3.80;100.00;100501.03;5051691;28;20093;-81
2022/02/24 11:06:39;;;;;;;3.58;1.75;;;;;;;4.12;100.00;100503.44;5044712;28;20471;-82
2022/02/24 11:09:09;;;;;;;0.80;0.80;;;;;;;6.69;95.58;100496.31;5040826;28;20490;-82
2022/02/24 11:11:36;;;;;;;1.02;0.60;;;;;;;8.00;87.18;100506.72;5044668;28;20033;-86
2022/02/24 11:14:09;;;;;;;0.50;0.50;;;;;;;6.34;91.96;100495.41;5043405;28;20033;-81
2022/02/24 11:16:35;;;;;;;1.23;1.00;;;;;;;6.02;95.17;100506.66;5061352;28;20071;-81
2022/02/24 11:19:03;;;;;;;0.52;0.52;;;;;;;7.39;90.03;100514.91;5050406;28;20125;-85
2022/02/24 11:21:30;;;;;;;0.80;0.80;;;;;;;8.25;87.77;100520.97;5033177;28;20036;-83